sensor_id;sensor_type;location;lat;lon;timestamp;pressure;altitude;pressure_sealevel;temperature;humidity
61271;BME280;47150;53.032;8.960;2022-08-24T00:01:13;101731.44;;;21.51;100.00
61271;BME280;47150;53.032;8.960;2022-08-24T00:03:41;101730.28;;;21.18;100.00
61271;BME280;47150;53.032;8.960;2022-08-24T00:06:11;101732.59;;;21.26;100.00
61271;BME280;47150;53.032;8.960;2022-08-24T00:08:40;101727.53;;;21.39;100.00
61271;BME280;47150;53.032;8.960;2022-08-24T00:11:07;101731.94;;;21.21;100.00
61271;BME280;47150;53.032;8.960;2022-08-24T00:13:33;101728.31;;;21.03;100.00
61271;BME280;47150;53.032;8.960;2022-08-24T00:15:59;101731.81;;;21.24;100.00
61271;BME280;47150;53.032;8.960;2022-08-24T00:18:25;101725.22;;;21.12;100.00
61271;BME280;47150;53.032;8.960;2022-08-24T00:20:51;101724.81;;;21.02;100.00
61271;BME280;47150;53.032;8.960;2022-08-24T00:23:17;101723.06;;;21.01;100.00
61271;BME280;47150;53.032;8.960;2022-08-24T00:25:42;101727.25;;;21.26;100.00
61271;BME280;47150;53.032;8.960;2022-08-24T00:28:08;101727.69;;;21.17;100.00
61271;BME280;47150;53.032;8.960;2022-08-24T00:30:34;101720.47;;;21.00;100.00
61271;BME280;47150;53.032;8.960;2022-08-24T00:33:00;101724.47;;;21.10;100.00
61271;BME280;47150;53.032;8.960;2022-08-24T00:35:26;101724.44;;;20.91;100.00
61271;BME280;47150;53.032;8.960;2022-08-24T00:37:53;101726.53;;;21.03;100.00
61271;BME280;47150;53.032;8.960;2022-08-24T00:40:27;101720.03;;;21.09;100.00
61271;BME280;47150;53.032;8.960;2022-08-24T00:42:58;101719.16;;;21.08;100.00
61271;BME280;47150;53.032;8.960;2022-08-24T00:45:30;101716.09;;;20.78;100.00
61271;BME280;47150;53.032;8.960;2022-08-24T00:48:02;101727.25;;;20.88;100.00
61271;BME280;47150;53.032;8.960;2022-08-24T00:53:16;101719.44;;;20.83;100.00
61271;BME280;47150;53.032;8.960;2022-08-24T00:55:59;101728.34;;;20.63;100.00
61271;BME280;47150;53.032;8.960;2022-08-24T00:58:33;101722.19;;;20.82;100.00
61271;BME280;47150;53.032;8.960;2022-08-24T01:01:04;101720.75;;;20.94;100.00
61271;BME280;47150;53.032;8.960;2022-08-24T01:03:33;101719.84;;;20.74;100.00
61271;BME280;47150;53.032;8.960;2022-08-24T01:06:01;101726.59;;;20.83;100.00
61271;BME280;47150;53.032;8.960;2022-08-24T01:08:27;101731.78;;;20.86;100.00
61271;BME280;47150;53.032;8.960;2022-08-24T01:10:59;101736.03;;;20.71;100.00
61271;BME280;47150;53.032;8.960;2022-08-24T01:13:28;101724.84;;;20.61;100.00
61271;BME280;47150;53.032;8.960;2022-08-24T01:15:59;101732.69;;;20.66;100.00
61271;BME280;47150;53.032;8.960;2022-08-24T01:18:28;101726.09;;;20.94;100.00
61271;BME280;47150;53.032;8.960;2022-08-24T01:21:19;101724.72;;;20.64;100.00
61271;BME280;47150;53.032;8.960;2022-08-24T01:24:01;101739.22;;;20.79;100.00
61271;BME280;47150;53.032;8.960;2022-08-24T01:26:48;101731.25;;;20.57;100.00
61271;BME280;47150;53.032;8.960;2022-08-24T01:29:21;101732.09;;;20.59;100.00
61271;BME280;47150;53.032;8.960;2022-08-24T01:31:50;101735.06;;;20.92;100.00
61271;BME280;47150;53.032;8.960;2022-08-24T01:34:16;101736.66;;;21.16;100.00
61271;BME280;47150;53.032;8.960;2022-08-24T01:36:55;101738.16;;;21.02;100.00
61271;BME280;47150;53.032;8.960;2022-08-24T01:39:35;101726.59;;;20.83;100.00
61271;BME280;47150;53.032;8.960;2022-08-24T01:42:04;101729.84;;;21.08;100.00
61271;BME280;47150;53.032;8.960;2022-08-24T01:44:32;101732.59;;;21.26;100.00
61271;BME280;47150;53.032;8.960;2022-08-24T01:47:00;101738.38;;;21.17;100.00
61271;BME280;47150;53.032;8.960;2022-08-24T01:49:29;101731.44;;;21.32;100.00
61271;BME280;47150;53.032;8.960;2022-08-24T01:51:57;101728.75;;;21.13;100.00
61271;BME280;47150;53.032;8.960;2022-08-24T01:54:23;101728.75;;;20.54;100.00
61271;BME280;47150;53.032;8.960;2022-08-24T01:56:49;101724.22;;;20.35;100.00
61271;BME280;47150;53.032;8.960;2022-08-24T01:59:15;101730.81;;;20.47;100.00
61271;BME280;47150;53.032;8.960;2022-08-24T02:01:47;101726.25;;;20.70;100.00
61271;BME280;47150;53.032;8.960;2022-08-24T02:04:16;101730.34;;;20.58;100.00
61271;BME280;47150;53.032;8.960;2022-08-24T02:06:42;101724.38;;;20.10;100.00
61271;BME280;47150;53.032;8.960;2022-08-24T02:09:09;101734.72;;;19.97;100.00
61271;BME280;47150;53.032;8.960;2022-08-24T02:11:37;101743.41;;;20.02;100.00
61271;BME280;47150;53.032;8.960;2022-08-24T02:14:04;101742.91;;;20.15;100.00
61271;BME280;47150;53.032;8.960;2022-08-24T02:16:30;101753.34;;;19.99;100.00
61271;BME280;47150;53.032;8.960;2022-08-24T02:18:57;101748.47;;;20.08;100.00
61271;BME280;47150;53.032;8.960;2022-08-24T02:21:23;101750.88;;;19.94;100.00
61271;BME280;47150;53.032;8.960;2022-08-24T02:23:50;101746.03;;;19.82;100.00
61271;BME280;47150;53.032;8.960;2022-08-24T02:26:16;101746.66;;;19.88;100.00
61271;BME280;47150;53.032;8.960;2022-08-24T02:28:42;101737.47;;;19.96;100.00
61271;BME280;47150;53.032;8.960;2022-08-24T02:31:09;101738.25;;;19.98;100.00
61271;BME280;47150;53.032;8.960;2022-08-24T02:33:37;101738.06;;;20.02;100.00
61271;BME280;47150;53.032;8.960;2022-08-24T02:36:04;101743.78;;;19.93;100.00
61271;BME280;47150;53.032;8.960;2022-08-24T02:38:31;101749.38;;;19.87;100.00
61271;BME280;47150;53.032;8.960;2022-08-24T02:40:57;101754.31;;;19.96;100.00
61271;BME280;47150;53.032;8.960;2022-08-24T02:43:23;101754.53;;;19.92;100.00
61271;BME280;47150;53.032;8.960;2022-08-24T02:45:49;101757.31;;;19.88;100.00
61271;BME280;47150;53.032;8.960;2022-08-24T02:48:15;101763.22;;;19.97;100.00
61271;BME280;47150;53.032;8.960;2022-08-24T02:50:45;101758.44;;;19.83;100.00
61271;BME280;47150;53.032;8.960;2022-08-24T02:53:14;101762.66;;;19.88;100.00
61271;BME280;47150;53.032;8.960;2022-08-24T02:55:42;101757.50;;;19.84;100.00
61271;BME280;47150;53.032;8.960;2022-08-24T02:58:10;101760.31;;;19.79;100.00
61271;BME280;47150;53.032;8.960;2022-08-24T03:00:38;101761.75;;;19.66;100.00
61271;BME280;47150;53.032;8.960;2022-08-24T03:03:06;101764.41;;;19.66;100.00
61271;BME280;47150;53.032;8.960;2022-08-24T03:05:33;101762.97;;;19.81;100.00
61271;BME280;47150;53.032;8.960;2022-08-24T03:07:59;101760.59;;;19.51;100.00
61271;BME280;47150;53.032;8.960;2022-08-24T03:10:24;101768.69;;;19.48;100.00
61271;BME280;47150;53.032;8.960;2022-08-24T03:12:51;101761.84;;;19.40;100.00
61271;BME280;47150;53.032;8.960;2022-08-24T03:15:17;101760.75;;;19.46;100.00
61271;BME280;47150;53.032;8.960;2022-08-24T03:17:46;101763.75;;;19.61;100.00
61271;BME280;47150;53.032;8.960;2022-08-24T03:20:13;101767.69;;;19.50;100.00
61271;BME280;47150;53.032;8.960;2022-08-24T03:22:41;101761.25;;;19.56;100.00
61271;BME280;47150;53.032;8.960;2022-08-24T03:25:09;101763.34;;;19.48;100.00
61271;BME280;47150;53.032;8.960;2022-08-24T03:27:36;101767.84;;;19.69;100.00
61271;BME280;47150;53.032;8.960;2022-08-24T03:30:04;101760.13;;;19.39;100.00
61271;BME280;47150;53.032;8.960;2022-08-24T03:32:31;101763.50;;;19.67;100.00
61271;BME280;47150;53.032;8.960;2022-08-24T03:34:57;101753.66;;;19.45;100.00
61271;BME280;47150;53.032;8.960;2022-08-24T03:37:22;101751.97;;;19.44;100.00
61271;BME280;47150;53.032;8.960;2022-08-24T03:39:48;101750.97;;;19.47;100.00
61271;BME280;47150;53.032;8.960;2022-08-24T03:42:15;101760.69;;;19.48;100.00
61271;BME280;47150;53.032;8.960;2022-08-24T03:44:41;101754.69;;;19.65;100.00
61271;BME280;47150;53.032;8.960;2022-08-24T03:47:07;101761.66;;;19.45;100.00
61271;BME280;47150;53.032;8.960;2022-08-24T03:49:36;101765.22;;;19.46;100.00
61271;BME280;47150;53.032;8.960;2022-08-24T03:52:04;101757.84;;;19.52;100.00
61271;BME280;47150;53.032;8.960;2022-08-24T03:54:31;101767.88;;;19.46;100.00
61271;BME280;47150;53.032;8.960;2022-08-24T03:56:57;101763.00;;;19.57;100.00
61271;BME280;47150;53.032;8.960;2022-08-24T03:59:23;101764.78;;;19.34;100.00
61271;BME280;47150;53.032;8.960;2022-08-24T04:01:49;101763.41;;;19.46;100.00
61271;BME280;47150;53.032;8.960;2022-08-24T04:04:15;101770.06;;;19.58;100.00
61271;BME280;47150;53.032;8.960;2022-08-24T04:06:40;101763.50;;;19.67;100.00
61271;BME280;47150;53.032;8.960;2022-08-24T04:09:09;101763.69;;;19.62;100.00
61271;BME280;47150;53.032;8.960;2022-08-24T04:11:36;101764.59;;;19.61;100.00
61271;BME280;47150;53.032;8.960;2022-08-24T04:14:01;101764.47;;;19.64;100.00
61271;BME280;47150;53.032;8.960;2022-08-24T04:16:27;101756.97;;;19.52;100.00
61271;BME280;47150;53.032;8.960;2022-08-24T04:18:55;101758.34;;;19.62;100.00
61271;BME280;47150;53.032;8.960;2022-08-24T04:21:30;101763.78;;;19.59;100.00
61271;BME280;47150;53.032;8.960;2022-08-24T04:23:58;101750.78;;;19.51;100.00
61271;BME280;47150;53.032;8.960;2022-08-24T04:26:27;101754.00;;;19.37;100.00
61271;BME280;47150;53.032;8.960;2022-08-24T04:28:55;101761.06;;;19.38;100.00
61271;BME280;47150;53.032;8.960;2022-08-24T04:31:22;101749.72;;;19.33;100.00
61271;BME280;47150;53.032;8.960;2022-08-24T04:33:49;101748.47;;;19.42;100.00
61271;BME280;47150;53.032;8.960;2022-08-24T04:36:18;101759.16;;;19.64;100.00
61271;BME280;47150;53.032;8.960;2022-08-24T04:38:46;101757.56;;;19.36;100.00
61271;BME280;47150;53.032;8.960;2022-08-24T04:41:14;101760.63;;;19.49;100.00
61271;BME280;47150;53.032;8.960;2022-08-24T04:43:41;101763.69;;;19.16;100.00
61271;BME280;47150;53.032;8.960;2022-08-24T04:46:11;101761.69;;;19.21;100.00
61271;BME280;47150;53.032;8.960;2022-08-24T04:48:40;101769.41;;;19.29;100.00
61271;BME280;47150;53.032;8.960;2022-08-24T04:51:08;101768.00;;;19.19;100.00
61271;BME280;47150;53.032;8.960;2022-08-24T04:53:35;101771.72;;;19.15;100.00
61271;BME280;47150;53.032;8.960;2022-08-24T04:56:02;101772.72;;;19.12;100.00
61271;BME280;47150;53.032;8.960;2022-08-24T04:58:29;101777.28;;;19.32;100.00
61271;BME280;47150;53.032;8.960;2022-08-24T05:00:55;101771.72;;;19.38;100.00
61271;BME280;47150;53.032;8.960;2022-08-24T05:03:21;101772.31;;;19.45;100.00
61271;BME280;47150;53.032;8.960;2022-08-24T05:05:49;101774.00;;;19.48;100.00
61271;BME280;47150;53.032;8.960;2022-08-24T05:08:17;101771.16;;;19.30;100.00
61271;BME280;47150;53.032;8.960;2022-08-24T05:10:47;101778.63;;;19.44;100.00
61271;BME280;47150;53.032;8.960;2022-08-24T05:13:14;101770.41;;;19.49;100.00
61271;BME280;47150;53.032;8.960;2022-08-24T05:15:41;101773.66;;;19.57;100.00
61271;BME280;47150;53.032;8.960;2022-08-24T05:18:11;101778.00;;;19.60;100.00
61271;BME280;47150;53.032;8.960;2022-08-24T05:20:42;101774.44;;;19.59;100.00
61271;BME280;47150;53.032;8.960;2022-08-24T05:23:10;101776.88;;;19.43;100.00
61271;BME280;47150;53.032;8.960;2022-08-24T05:25:37;101783.41;;;19.58;100.00
61271;BME280;47150;53.032;8.960;2022-08-24T05:28:04;101792.09;;;19.39;100.00
61271;BME280;47150;53.032;8.960;2022-08-24T05:30:31;101788.34;;;19.21;100.00
61271;BME280;47150;53.032;8.960;2022-08-24T05:32:57;101799.44;;;19.34;100.00
61271;BME280;47150;53.032;8.960;2022-08-24T05:35:23;101795.00;;;19.57;100.00
61271;BME280;47150;53.032;8.960;2022-08-24T05:37:48;101805.31;;;19.66;100.00
61271;BME280;47150;53.032;8.960;2022-08-24T05:40:16;101806.41;;;19.61;100.00
61271;BME280;47150;53.032;8.960;2022-08-24T05:42:43;101809.13;;;19.59;100.00
61271;BME280;47150;53.032;8.960;2022-08-24T05:45:11;101805.81;;;19.76;100.00
61271;BME280;47150;53.032;8.960;2022-08-24T05:47:37;101808.06;;;19.63;100.00
61271;BME280;47150;53.032;8.960;2022-08-24T05:50:03;101811.25;;;19.97;100.00
61271;BME280;47150;53.032;8.960;2022-08-24T05:52:30;101811.59;;;19.87;100.00
61271;BME280;47150;53.032;8.960;2022-08-24T05:54:58;101819.19;;;19.98;100.00
61271;BME280;47150;53.032;8.960;2022-08-24T05:57:26;101808.56;;;20.19;100.00
61271;BME280;47150;53.032;8.960;2022-08-24T05:59:56;101812.75;;;20.24;100.00
61271;BME280;47150;53.032;8.960;2022-08-24T06:02:22;101808.38;;;20.44;100.00
61271;BME280;47150;53.032;8.960;2022-08-24T06:04:48;101806.56;;;20.65;100.00
61271;BME280;47150;53.032;8.960;2022-08-24T06:07:13;101810.38;;;20.39;100.00
61271;BME280;47150;53.032;8.960;2022-08-24T06:09:40;101811.00;;;20.87;100.00
61271;BME280;47150;53.032;8.960;2022-08-24T06:12:07;101807.72;;;21.01;100.00
61271;BME280;47150;53.032;8.960;2022-08-24T06:14:34;101811.91;;;21.06;100.00
61271;BME280;47150;53.032;8.960;2022-08-24T06:17:03;101808.72;;;20.98;100.00
61271;BME280;47150;53.032;8.960;2022-08-24T06:19:31;101814.22;;;21.14;100.00
61271;BME280;47150;53.032;8.960;2022-08-24T06:21:58;101812.44;;;21.15;100.00
61271;BME280;47150;53.032;8.960;2022-08-24T06:24:26;101809.03;;;21.30;100.00
61271;BME280;47150;53.032;8.960;2022-08-24T06:27:12;101815.91;;;20.96;100.00
61271;BME280;47150;53.032;8.960;2022-08-24T06:29:45;101820.78;;;21.07;100.00
61271;BME280;47150;53.032;8.960;2022-08-24T06:32:11;101816.69;;;21.19;100.00
61271;BME280;47150;53.032;8.960;2022-08-24T06:34:36;101827.66;;;21.13;100.00
61271;BME280;47150;53.032;8.960;2022-08-24T06:37:03;101829.50;;;21.31;100.00
61271;BME280;47150;53.032;8.960;2022-08-24T06:39:29;101826.47;;;21.20;100.00
61271;BME280;47150;53.032;8.960;2022-08-24T06:41:54;101825.44;;;21.41;100.00
61271;BME280;47150;53.032;8.960;2022-08-24T06:44:20;101831.47;;;21.47;100.00
61271;BME280;47150;53.032;8.960;2022-08-24T06:46:45;101836.16;;;21.41;100.00
61271;BME280;47150;53.032;8.960;2022-08-24T06:49:11;101839.25;;;21.51;100.00
61271;BME280;47150;53.032;8.960;2022-08-24T06:51:36;101840.25;;;21.49;100.00
61271;BME280;47150;53.032;8.960;2022-08-24T06:54:02;101837.34;;;21.74;100.00
61271;BME280;47150;53.032;8.960;2022-08-24T06:56:27;101832.53;;;21.81;100.00
61271;BME280;47150;53.032;8.960;2022-08-24T06:58:53;101840.81;;;21.76;100.00
61271;BME280;47150;53.032;8.960;2022-08-24T07:01:22;101848.75;;;21.77;100.00
61271;BME280;47150;53.032;8.960;2022-08-24T07:03:49;101838.97;;;21.76;100.00
61271;BME280;47150;53.032;8.960;2022-08-24T07:06:15;101839.91;;;22.31;100.00
61271;BME280;47150;53.032;8.960;2022-08-24T07:08:42;101850.88;;;22.26;100.00
61271;BME280;47150;53.032;8.960;2022-08-24T07:11:09;101847.47;;;22.23;100.00
61271;BME280;47150;53.032;8.960;2022-08-24T07:13:37;101850.69;;;22.49;100.00
61271;BME280;47150;53.032;8.960;2022-08-24T07:16:03;101856.91;;;22.67;100.00
61271;BME280;47150;53.032;8.960;2022-08-24T07:18:29;101866.72;;;22.66;100.00
61271;BME280;47150;53.032;8.960;2022-08-24T07:20:54;101871.06;;;22.69;100.00
61271;BME280;47150;53.032;8.960;2022-08-24T07:23:20;101861.53;;;22.63;100.00
61271;BME280;47150;53.032;8.960;2022-08-24T07:25:47;101869.72;;;22.77;100.00
61271;BME280;47150;53.032;8.960;2022-08-24T07:28:13;101869.97;;;22.73;100.00
61271;BME280;47150;53.032;8.960;2022-08-24T07:30:40;101881.78;;;22.86;100.00
61271;BME280;47150;53.032;8.960;2022-08-24T07:33:07;101870.53;;;22.79;100.00
61271;BME280;47150;53.032;8.960;2022-08-24T07:35:34;101871.75;;;22.90;100.00
61271;BME280;47150;53.032;8.960;2022-08-24T07:38:03;101876.16;;;23.08;100.00
61271;BME280;47150;53.032;8.960;2022-08-24T07:40:31;101869.47;;;23.00;100.00
61271;BME280;47150;53.032;8.960;2022-08-24T07:42:57;101876.16;;;23.26;100.00
61271;BME280;47150;53.032;8.960;2022-08-24T07:45:24;101871.94;;;23.38;100.00
61271;BME280;47150;53.032;8.960;2022-08-24T07:47:52;101876.50;;;23.36;100.00
61271;BME280;47150;53.032;8.960;2022-08-24T07:50:19;101872.03;;;23.52;100.00
61271;BME280;47150;53.032;8.960;2022-08-24T07:52:45;101877.06;;;23.42;100.00
61271;BME280;47150;53.032;8.960;2022-08-24T07:55:12;101873.09;;;23.66;100.00
61271;BME280;47150;53.032;8.960;2022-08-24T07:57:39;101873.19;;;23.64;100.00
61271;BME280;47150;53.032;8.960;2022-08-24T08:00:10;101879.53;;;23.79;100.00
61271;BME280;47150;53.032;8.960;2022-08-24T08:02:38;101881.28;;;23.96;100.00
61271;BME280;47150;53.032;8.960;2022-08-24T08:05:07;101873.19;;;23.80;100.00
61271;BME280;47150;53.032;8.960;2022-08-24T08:07:33;101873.16;;;23.97;100.00
61271;BME280;47150;53.032;8.960;2022-08-24T08:10:00;101869.00;;;24.08;100.00
61271;BME280;47150;53.032;8.960;2022-08-24T08:12:26;101877.47;;;24.00;100.00
61271;BME280;47150;53.032;8.960;2022-08-24T08:14:51;101878.16;;;24.20;100.00
61271;BME280;47150;53.032;8.960;2022-08-24T08:17:17;101889.72;;;24.36;100.00
61271;BME280;47150;53.032;8.960;2022-08-24T08:19:43;101891.97;;;24.44;100.00
61271;BME280;47150;53.032;8.960;2022-08-24T08:22:09;101883.44;;;24.68;100.00
61271;BME280;47150;53.032;8.960;2022-08-24T08:24:53;101892.13;;;24.57;100.00
61271;BME280;47150;53.032;8.960;2022-08-24T08:27:18;101891.41;;;24.69;100.00
61271;BME280;47150;53.032;8.960;2022-08-24T08:29:46;101891.09;;;24.90;100.00
61271;BME280;47150;53.032;8.960;2022-08-24T08:32:13;101892.44;;;25.11;100.00
61271;BME280;47150;53.032;8.960;2022-08-24T08:34:42;101884.97;;;25.16;100.00
61271;BME280;47150;53.032;8.960;2022-08-24T08:37:08;101887.31;;;25.37;100.00
61271;BME280;47150;53.032;8.960;2022-08-24T08:39:35;101890.00;;;25.37;100.00
61271;BME280;47150;53.032;8.960;2022-08-24T08:42:26;101896.25;;;25.52;100.00
61271;BME280;47150;53.032;8.960;2022-08-24T08:54:03;101892.03;;;26.04;95.39
61271;BME280;47150;53.032;8.960;2022-08-24T09:02:54;101879.63;;;26.02;91.50
61271;BME280;47150;53.032;8.960;2022-08-24T09:09:06;101877.25;;;26.24;86.12
61271;BME280;47150;53.032;8.960;2022-08-24T09:20:39;101876.56;;;26.61;80.04
61271;BME280;47150;53.032;8.960;2022-08-24T09:23:55;101882.94;;;27.00;75.78
61271;BME280;47150;53.032;8.960;2022-08-24T09:27:04;101876.78;;;26.85;77.46
61271;BME280;47150;53.032;8.960;2022-08-24T09:30:18;101870.28;;;27.00;76.43
61271;BME280;47150;53.032;8.960;2022-08-24T09:33:04;101869.34;;;27.40;75.06
61271;BME280;47150;53.032;8.960;2022-08-24T09:47:23;101863.03;;;27.90;65.91
61271;BME280;47150;53.032;8.960;2022-08-24T09:50:36;101854.69;;;28.06;64.14
61271;BME280;47150;53.032;8.960;2022-08-24T10:02:36;101858.81;;;28.58;59.80
61271;BME280;47150;53.032;8.960;2022-08-24T10:07:57;101854.50;;;28.56;55.04
61271;BME280;47150;53.032;8.960;2022-08-24T10:10:35;101859.72;;;28.70;52.64
61271;BME280;47150;53.032;8.960;2022-08-24T10:13:47;101848.59;;;28.50;51.15
61271;BME280;47150;53.032;8.960;2022-08-24T10:35:32;101838.34;;;29.69;45.61
61271;BME280;47150;53.032;8.960;2022-08-24T10:38:19;101830.66;;;29.97;45.76
61271;BME280;47150;53.032;8.960;2022-08-24T10:41:29;101838.66;;;29.98;44.05
61271;BME280;47150;53.032;8.960;2022-08-24T10:47:20;101843.59;;;29.93;44.43
61271;BME280;47150;53.032;8.960;2022-08-24T10:49:57;101847.28;;;30.03;43.55
61271;BME280;47150;53.032;8.960;2022-08-24T10:53:13;101844.44;;;30.05;46.07
61271;BME280;47150;53.032;8.960;2022-08-24T10:55:56;101838.47;;;30.11;44.79
61271;BME280;47150;53.032;8.960;2022-08-24T11:01:23;101834.81;;;30.33;43.73
61271;BME280;47150;53.032;8.960;2022-08-24T11:04:04;101844.94;;;30.31;43.41
61271;BME280;47150;53.032;8.960;2022-08-24T11:06:38;101844.34;;;30.28;42.85
61271;BME280;47150;53.032;8.960;2022-08-24T11:09:13;101837.25;;;30.48;43.62
61271;BME280;47150;53.032;8.960;2022-08-24T11:11:45;101846.16;;;30.60;42.75
61271;BME280;47150;53.032;8.960;2022-08-24T11:16:41;101827.75;;;30.84;41.46
61271;BME280;47150;53.032;8.960;2022-08-24T11:19:16;101830.72;;;31.02;41.64
61271;BME280;47150;53.032;8.960;2022-08-24T11:21:57;101830.63;;;31.14;41.86
61271;BME280;47150;53.032;8.960;2022-08-24T11:24:37;101835.41;;;31.31;41.78
61271;BME280;47150;53.032;8.960;2022-08-24T11:38:24;101826.66;;;31.28;39.90
61271;BME280;47150;53.032;8.960;2022-08-24T11:41:27;101841.22;;;30.96;40.03
61271;BME280;47150;53.032;8.960;2022-08-24T11:44:27;101838.84;;;31.64;40.32
61271;BME280;47150;53.032;8.960;2022-08-24T11:50:18;101828.56;;;31.97;38.45
61271;BME280;47150;53.032;8.960;2022-08-24T11:55:28;101834.72;;;31.89;38.00
61271;BME280;47150;53.032;8.960;2022-08-24T11:58:09;101825.00;;;32.16;37.78
61271;BME280;47150;53.032;8.960;2022-08-24T12:09:45;101831.38;;;34.57;34.29
61271;BME280;47150;53.032;8.960;2022-08-24T12:12:27;101827.66;;;34.85;33.27
61271;BME280;47150;53.032;8.960;2022-08-24T12:15:10;101817.63;;;36.70;31.42
61271;BME280;47150;53.032;8.960;2022-08-24T12:18:00;101820.06;;;36.48;31.31
61271;BME280;47150;53.032;8.960;2022-08-24T12:20:41;101825.81;;;38.88;28.82
61271;BME280;47150;53.032;8.960;2022-08-24T12:23:37;101823.09;;;37.89;28.61
61271;BME280;47150;53.032;8.960;2022-08-24T12:26:14;101815.69;;;38.50;28.03
61271;BME280;47150;53.032;8.960;2022-08-24T12:28:55;101824.09;;;38.72;28.36
61271;BME280;47150;53.032;8.960;2022-08-24T12:31:41;101818.47;;;36.70;29.50
61271;BME280;47150;53.032;8.960;2022-08-24T12:37:09;101806.84;;;36.85;28.52
61271;BME280;47150;53.032;8.960;2022-08-24T12:45:36;101806.22;;;40.29;25.47
61271;BME280;47150;53.032;8.960;2022-08-24T12:48:30;101809.47;;;43.31;23.34
61271;BME280;47150;53.032;8.960;2022-08-24T12:59:56;101804.38;;;38.69;26.46
61271;BME280;47150;53.032;8.960;2022-08-24T13:02:36;101797.44;;;43.12;23.25
61271;BME280;47150;53.032;8.960;2022-08-24T13:05:15;101800.72;;;40.93;24.73
61271;BME280;47150;53.032;8.960;2022-08-24T13:07:47;101805.25;;;40.44;25.20
61271;BME280;47150;53.032;8.960;2022-08-24T13:10:34;101796.56;;;39.32;24.87
61271;BME280;47150;53.032;8.960;2022-08-24T13:23:19;101811.38;;;41.71;23.97
61271;BME280;47150;53.032;8.960;2022-08-24T13:42:51;101789.66;;;38.31;25.77
61271;BME280;47150;53.032;8.960;2022-08-24T13:45:34;101784.88;;;41.97;23.86
61271;BME280;47150;53.032;8.960;2022-08-24T13:56:49;101782.69;;;43.25;22.06
61271;BME280;47150;53.032;8.960;2022-08-24T14:05:34;101778.94;;;47.04;19.61
61271;BME280;47150;53.032;8.960;2022-08-24T14:08:31;101771.78;;;44.19;21.24
61271;BME280;47150;53.032;8.960;2022-08-24T14:14:04;101772.25;;;44.78;20.98
61271;BME280;47150;53.032;8.960;2022-08-24T14:16:34;101768.38;;;43.34;21.96
61271;BME280;47150;53.032;8.960;2022-08-24T14:27:42;101756.25;;;42.97;22.13
61271;BME280;47150;53.032;8.960;2022-08-24T14:33:16;101756.72;;;44.89;20.54
61271;BME280;47150;53.032;8.960;2022-08-24T14:46:54;101754.09;;;41.60;23.03
61271;BME280;47150;53.032;8.960;2022-08-24T14:52:43;101761.94;;;43.09;22.76
61271;BME280;47150;53.032;8.960;2022-08-24T15:00:33;101746.75;;;39.85;24.22
61271;BME280;47150;53.032;8.960;2022-08-24T15:09:30;101747.44;;;42.48;22.74
61271;BME280;47150;53.032;8.960;2022-08-24T15:12:28;101745.47;;;40.31;24.42
61271;BME280;47150;53.032;8.960;2022-08-24T15:18:08;101743.66;;;42.29;23.14
61271;BME280;47150;53.032;8.960;2022-08-24T15:21:01;101733.06;;;42.91;21.95
61271;BME280;47150;53.032;8.960;2022-08-24T15:23:49;101737.59;;;39.78;24.68
61271;BME280;47150;53.032;8.960;2022-08-24T15:26:36;101725.91;;;39.97;24.30
61271;BME280;47150;53.032;8.960;2022-08-24T15:29:17;101723.50;;;41.55;23.33
61271;BME280;47150;53.032;8.960;2022-08-24T15:34:39;101719.25;;;39.85;24.64
61271;BME280;47150;53.032;8.960;2022-08-24T15:37:05;101719.66;;;39.82;24.62
61271;BME280;47150;53.032;8.960;2022-08-24T15:39:31;101718.75;;;40.31;23.80
61271;BME280;47150;53.032;8.960;2022-08-24T15:41:57;101726.50;;;41.60;23.25
61271;BME280;47150;53.032;8.960;2022-08-24T15:44:29;101719.94;;;38.92;25.18
61271;BME280;47150;53.032;8.960;2022-08-24T15:47:35;101723.38;;;39.31;25.14
61271;BME280;47150;53.032;8.960;2022-08-24T15:50:06;101724.72;;;41.25;23.98
61271;BME280;47150;53.032;8.960;2022-08-24T15:52:47;101728.38;;;41.46;23.16
61271;BME280;47150;53.032;8.960;2022-08-24T15:57:48;101720.56;;;41.76;22.38
61271;BME280;47150;53.032;8.960;2022-08-24T16:00:18;101724.75;;;41.39;22.92
61271;BME280;47150;53.032;8.960;2022-08-24T16:03:44;101724.50;;;41.27;23.27
61271;BME280;47150;53.032;8.960;2022-08-24T16:12:04;101724.13;;;39.40;24.73
61271;BME280;47150;53.032;8.960;2022-08-24T16:14:36;101720.16;;;39.49;24.90
61271;BME280;47150;53.032;8.960;2022-08-24T16:22:56;101720.44;;;39.54;25.19
61271;BME280;47150;53.032;8.960;2022-08-24T16:25:26;101727.94;;;37.89;25.78
61271;BME280;47150;53.032;8.960;2022-08-24T16:28:05;101728.22;;;38.32;26.21
61271;BME280;47150;53.032;8.960;2022-08-24T16:30:55;101728.94;;;40.38;23.91
61271;BME280;47150;53.032;8.960;2022-08-24T16:33:37;101722.56;;;40.30;23.92
61271;BME280;47150;53.032;8.960;2022-08-24T16:36:14;101712.69;;;39.21;25.00
61271;BME280;47150;53.032;8.960;2022-08-24T16:38:46;101720.91;;;40.36;24.24
61271;BME280;47150;53.032;8.960;2022-08-24T16:41:16;101725.03;;;39.47;24.97
61271;BME280;47150;53.032;8.960;2022-08-24T16:43:44;101731.34;;;38.29;25.61
61271;BME280;47150;53.032;8.960;2022-08-24T16:46:12;101738.97;;;38.19;26.27
61271;BME280;47150;53.032;8.960;2022-08-24T16:48:42;101728.75;;;37.20;26.98
61271;BME280;47150;53.032;8.960;2022-08-24T16:51:07;101735.31;;;38.42;26.82
61271;BME280;47150;53.032;8.960;2022-08-24T16:53:33;101723.66;;;37.63;26.98
61271;BME280;47150;53.032;8.960;2022-08-24T16:55:59;101718.44;;;36.99;27.83